MKE weather

General Mitchell International Airport
Milwaukee, Wisconsin, United States

Public forecast

Using degrees Fahrenheit for public forecast. Weather courtesy of forecast.io.

METAR (pilot weather report)

Retrieved 2019/05/23 09:52 UTC (53 minutes ago):

KMKE 230952Z 25008KT 10SM FEW040 FEW200 SCT250 18/14 A2987 RMK AO2 SLP110 T01780144

TAF (pilot weather forecast)

Retrieved 2019/05/23 06:36 UTC (4 hours ago):

TAF KMKE 230533Z 2306/2412 22009KT 6SM -SHRA VCTS OVC045CB FM230800 24008KT P6SM VCSH BKN045 FM231000 26007KT P6SM SCT200 FM231400 27012G21KT P6SM FEW250 FM240000 33005KT P6SM FEW150 FM241000 05005KT P6SM BKN150